Krabi, Thailand

1:28 PM ICT on July 27, 2016 (GMT +0700)
Krabi | | Change Station

Elev 82 ft 8.10 °N, 98.99 °E | Updated 28 minutes ago

Scattered Clouds
Scattered Clouds
82 °F
Feels Like 90 °F
N
7
Wind Variable Wind from SSE

Today
High -- | Low -- °F
--% Chance of Precip.
Yesterday
High -- | Low -- °F
Precip. -- in
Pressure 29.80 in
Visibility 5.6 miles
Clouds Few 1800 ft
Scattered Clouds 2500 ft
Heat Index 90 °F
Dew Point 75 °F
Humidity 79%
Rainfall 0.00 in
Snow Depth Not available.
6:15 AM 6:45 PM
Waning Gibbous, 46% visible
METAR VTSG 270600Z 16006KT 9000 FEW018CB SCT025 28/24 Q1009 A2979 INFO V RWY32
Pressure 29.80 in
Visibility 5.6 miles
Clouds Few 1800 ft
Scattered Clouds 2500 ft
Heat Index 90 °F
Dew Point 75 °F
Humidity 79%
Rainfall 0.00 in
Snow Depth Not available.
6:15 AM 6:45 PM
Waning Gibbous, 46% visible
METAR VTSG 270600Z 16006KT 9000 FEW018CB SCT025 28/24 Q1009 A2979 INFO V RWY32

10-Day Weather Forecast

No radar image for this location.
×

Almanac

Astronomy

Jul. 27, 2016 Rise Set
Actual Time
Civil Twilight
Nautical Twilight
Astronomical Twilight
Moon
Length of Visible Light
Length of Day
Tomorrow will be .
, % of the Moon is Illuminated

Today's Extremes

Country Highs Country Lows

Community

WunderPhotos

Upload Photos

1,927,818 photos uploaded!

WunderBlog® & News

Nearby

Air Quality

  Air Quality AQ Index Pollutant
Not available.

Snow Depth

Station Depth Elevation

Earthquake Activity

City Distance Mag. Time & Date
Minimum magnitude displayed is 2.5.

Coastal Water Temperatures

Place Temperature

Stations

Nearby Weather Stations

Station Location Temp. Windchill Dew Point Humidity Wind Precip. Elev Updated Type